createdAt,value
2023-02-11T00:00:48.779Z,47.20
2023-02-11T00:03:27.064Z,48.90
2023-02-11T00:06:16.393Z,57.40
2023-02-11T00:09:05.530Z,51.50
2023-02-11T00:11:54.280Z,56.40
2023-02-11T00:14:42.955Z,52.30
2023-02-11T00:17:32.402Z,55.50
2023-02-11T00:20:07.903Z,56.60
2023-02-11T00:22:56.852Z,53.20
2023-02-11T00:25:46.039Z,60.80
2023-02-11T00:28:34.708Z,50.50
2023-02-11T00:31:24.355Z,59.80
2023-02-11T00:34:13.819Z,60.50
2023-02-11T00:37:02.725Z,61.00
2023-02-11T00:39:51.367Z,61.30
2023-02-11T00:42:40.321Z,61.00
2023-02-11T00:45:30.029Z,60.50
2023-02-11T00:48:18.735Z,52.20
2023-02-11T00:51:07.724Z,58.40
2023-02-11T00:53:56.299Z,59.50
2023-02-11T00:56:44.916Z,57.10
2023-02-11T00:59:33.494Z,58.60
2023-02-11T01:02:22.166Z,55.30
2023-02-11T01:05:11.233Z,56.60
2023-02-11T01:07:59.877Z,60.10
2023-02-11T01:10:55.682Z,49.70
2023-02-11T01:13:44.895Z,44.20
2023-02-11T01:16:16.424Z,45.00
2023-02-11T01:19:05.132Z,45.40
2023-02-11T01:21:53.771Z,43.50
2023-02-11T01:24:42.362Z,38.50
2023-02-11T01:27:31.013Z,52.50
2023-02-11T01:30:19.760Z,50.00
2023-02-11T01:33:08.429Z,56.80
2023-02-11T01:36:02.335Z,55.70
2023-02-11T01:38:50.949Z,51.50
2023-02-11T01:41:39.937Z,52.70
2023-02-11T01:44:30.377Z,46.20
2023-02-11T01:47:19.635Z,49.00
2023-02-11T01:50:08.587Z,49.40
2023-02-11T01:53:18.513Z,51.30
2023-02-11T01:56:26.300Z,46.40
2023-02-11T01:59:20.352Z,44.00
2023-02-11T02:05:06.785Z,38.20
2023-02-11T02:08:05.180Z,40.20
2023-02-11T02:10:55.776Z,43.20
2023-02-11T02:13:35.760Z,47.70
2023-02-11T02:16:30.364Z,50.00
2023-02-11T02:20:21.945Z,44.10
2023-02-11T02:23:35.264Z,49.40
2023-02-11T02:26:59.265Z,42.80
2023-02-11T02:30:22.578Z,46.80
2023-02-11T02:33:45.460Z,44.00
2023-02-11T02:36:44.161Z,43.90
2023-02-11T02:39:36.067Z,45.70
2023-02-11T02:42:26.320Z,33.10
2023-02-11T02:45:00.458Z,36.10
2023-02-11T02:47:49.205Z,36.90
2023-02-11T02:50:38.502Z,45.50
2023-02-11T02:53:40.244Z,42.30
2023-02-11T02:56:32.010Z,41.90
2023-02-11T02:59:35.477Z,40.80
2023-02-11T03:02:31.698Z,43.10
2023-02-11T03:05:30.341Z,41.10
2023-02-11T03:08:26.633Z,44.70
2023-02-11T03:11:19.076Z,39.10
2023-02-11T03:14:10.969Z,40.70
2023-02-11T03:16:48.713Z,45.40
2023-02-11T03:19:26.623Z,40.80
2023-02-11T03:22:20.825Z,38.00
2023-02-11T03:25:10.012Z,43.70
2023-02-11T03:27:43.890Z,43.40
2023-02-11T03:33:28.538Z,37.00
2023-02-11T03:36:23.686Z,36.40
2023-02-11T03:39:15.828Z,38.50
2023-02-11T03:42:06.819Z,39.20
2023-02-11T03:45:03.710Z,33.10
2023-02-11T03:47:56.434Z,35.80
2023-02-11T03:50:47.089Z,35.30
2023-02-11T03:53:38.483Z,36.50
2023-02-11T03:56:31.709Z,40.90
2023-02-11T03:59:20.795Z,31.90
2023-02-11T04:02:09.602Z,40.20
2023-02-11T04:04:58.814Z,36.80
2023-02-11T04:07:47.429Z,33.00
2023-02-11T04:10:36.059Z,38.40
2023-02-11T04:13:26.371Z,35.60
2023-02-11T04:16:15.053Z,41.20
2023-02-11T04:19:03.903Z,40.40
2023-02-11T04:21:52.512Z,38.40
2023-02-11T04:24:43.272Z,41.00
2023-02-11T04:27:32.428Z,38.10
2023-02-11T04:30:21.585Z,38.70
2023-02-11T04:33:10.276Z,37.80
2023-02-11T04:35:58.947Z,41.30
2023-02-11T04:38:47.746Z,39.30
2023-02-11T04:41:36.408Z,36.10
2023-02-11T04:44:25.322Z,38.00
2023-02-11T04:47:15.062Z,35.10
2023-02-11T04:50:03.921Z,35.00
2023-02-11T04:52:52.584Z,39.60
2023-02-11T04:55:41.204Z,39.20
2023-02-11T04:58:30.092Z,36.30
2023-02-11T05:01:18.853Z,42.10
2023-02-11T05:04:07.627Z,37.50
2023-02-11T05:06:58.576Z,38.90
2023-02-11T05:09:47.318Z,37.70
2023-02-11T05:12:35.900Z,36.50
2023-02-11T05:15:24.584Z,39.70
2023-02-11T05:18:14.214Z,38.20
2023-02-11T05:21:07.809Z,37.60
2023-02-11T05:23:56.553Z,33.80
2023-02-11T05:26:45.118Z,32.30
2023-02-11T05:29:33.716Z,36.80
2023-02-11T05:32:22.313Z,34.70
2023-02-11T05:35:10.913Z,27.10
2023-02-11T05:37:59.555Z,31.00
2023-02-11T05:40:48.173Z,30.20
2023-02-11T05:43:37.261Z,30.70
2023-02-11T05:46:25.899Z,31.10
2023-02-11T05:49:15.740Z,28.80
2023-02-11T05:52:04.924Z,29.50
2023-02-11T05:54:53.568Z,27.50
2023-02-11T05:57:42.206Z,28.00
2023-02-11T06:00:30.921Z,23.20
2023-02-11T06:03:03.560Z,25.80
2023-02-11T06:05:52.430Z,24.90
2023-02-11T06:08:42.257Z,26.30
2023-02-11T06:11:30.878Z,28.30
2023-02-11T06:14:19.626Z,29.40
2023-02-11T06:17:08.266Z,26.30
2023-02-11T06:19:56.948Z,24.80
2023-02-11T06:22:45.772Z,28.30
2023-02-11T06:25:34.449Z,25.50
2023-02-11T06:28:23.197Z,26.40
2023-02-11T06:31:07.246Z,26.80
2023-02-11T06:33:55.948Z,27.60
2023-02-11T06:36:24.596Z,20.50
2023-02-11T06:39:13.907Z,22.60
2023-02-11T06:41:42.294Z,26.90
2023-02-11T06:44:31.299Z,25.20
2023-02-11T06:47:20.017Z,25.80
2023-02-11T06:49:57.456Z,29.10
2023-02-11T06:52:46.174Z,28.90
2023-02-11T06:55:36.018Z,24.90
2023-02-11T06:58:24.700Z,25.50
2023-02-11T07:00:53.309Z,27.90
2023-02-11T07:03:44.386Z,23.80
2023-02-11T07:06:33.357Z,25.20
2023-02-11T07:09:10.962Z,26.70
2023-02-11T07:11:59.830Z,25.90
2023-02-11T07:14:37.388Z,24.60
2023-02-11T07:17:26.527Z,27.20
2023-02-11T07:20:16.344Z,29.60
2023-02-11T07:23:05.165Z,30.00
2023-02-11T07:25:53.851Z,26.20
2023-02-11T07:28:31.843Z,27.40
2023-02-11T07:31:22.891Z,30.50
2023-02-11T07:34:11.590Z,25.60
2023-02-11T07:37:00.629Z,27.50
2023-02-11T07:39:49.380Z,27.00
2023-02-11T07:42:39.946Z,26.20
2023-02-11T07:45:28.552Z,26.60
2023-02-11T07:48:17.234Z,26.50
2023-02-11T07:51:10.982Z,28.10
2023-02-11T07:54:00.952Z,26.80
2023-02-11T07:56:49.596Z,28.50
2023-02-11T07:59:38.293Z,29.20
2023-02-11T08:02:27.250Z,27.30
2023-02-11T08:05:00.928Z,30.50
2023-02-11T08:07:53.094Z,30.90
2023-02-11T08:10:41.736Z,30.80
2023-02-11T08:13:30.407Z,32.70
2023-02-11T08:16:20.570Z,32.40
2023-02-11T08:18:50.282Z,32.50
2023-02-11T08:21:39.868Z,32.10
2023-02-11T08:24:28.508Z,30.60
2023-02-11T08:27:17.213Z,28.40
2023-02-11T08:30:08.252Z,26.90
2023-02-11T08:32:56.869Z,30.90
2023-02-11T08:35:45.503Z,31.00
2023-02-11T08:38:34.143Z,31.10
2023-02-11T08:41:22.921Z,27.90
2023-02-11T08:44:12.340Z,32.50
2023-02-11T08:47:00.935Z,28.40
2023-02-11T08:49:49.511Z,28.00
2023-02-11T08:52:38.112Z,30.40
2023-02-11T08:55:26.740Z,31.90
2023-02-11T08:58:16.990Z,34.10
2023-02-11T09:01:11.877Z,30.00
2023-02-11T09:04:00.777Z,33.30
2023-02-11T09:06:49.376Z,34.80
2023-02-11T09:09:37.998Z,30.10
2023-02-11T09:12:26.647Z,31.10
2023-02-11T09:15:15.260Z,35.20
2023-02-11T09:18:05.053Z,33.00
2023-02-11T09:20:53.774Z,30.40
2023-02-11T09:23:44.131Z,30.80
2023-02-11T09:26:34.312Z,29.60
2023-02-11T09:29:23.227Z,32.10
2023-02-11T09:32:12.015Z,31.60
2023-02-11T09:35:00.741Z,28.60
2023-02-11T09:37:49.346Z,32.00
2023-02-11T09:40:43.545Z,32.00
2023-02-11T09:46:27.129Z,28.20
2023-02-11T09:49:21.563Z,31.50
2023-02-11T09:52:23.218Z,28.30
2023-02-11T09:55:20.922Z,31.10
2023-02-11T09:58:14.141Z,31.20
2023-02-11T10:01:13.903Z,33.00
2023-02-11T10:04:07.107Z,35.80
2023-02-11T10:07:01.372Z,35.00
2023-02-11T10:09:57.258Z,30.00
2023-02-11T10:13:00.808Z,33.80
2023-02-11T10:15:57.488Z,31.00
2023-02-11T10:19:21.936Z,35.80
2023-02-11T10:22:19.144Z,29.10
2023-02-11T10:25:20.146Z,33.10
2023-02-11T10:28:14.665Z,31.50
2023-02-11T10:31:07.972Z,33.20
2023-02-11T10:34:02.480Z,35.10
2023-02-11T10:36:33.581Z,31.40
2023-02-11T10:39:23.832Z,30.20
2023-02-11T10:42:14.330Z,33.40
2023-02-11T10:45:00.187Z,32.20
2023-02-11T10:47:48.932Z,34.80
2023-02-11T10:50:37.689Z,31.10
2023-02-11T10:53:26.472Z,37.60
2023-02-11T10:56:24.165Z,29.80
2023-02-11T10:59:21.678Z,31.20
2023-02-11T11:02:23.058Z,32.90
2023-02-11T11:05:19.642Z,32.40
2023-02-11T11:08:09.329Z,31.90
2023-02-11T11:10:43.160Z,30.00
2023-02-11T11:13:33.840Z,30.30
2023-02-11T11:16:25.325Z,30.30
2023-02-11T11:19:22.244Z,32.30
2023-02-11T11:22:21.773Z,29.00
2023-02-11T11:25:23.604Z,35.00
2023-02-11T11:28:22.237Z,35.70
2023-02-11T11:31:17.360Z,30.70
2023-02-11T11:34:20.543Z,31.70
2023-02-11T11:37:13.454Z,31.50
2023-02-11T11:40:11.072Z,31.10
2023-02-11T11:43:21.316Z,35.20
2023-02-11T11:46:30.075Z,32.60
2023-02-11T11:49:27.701Z,27.90
2023-02-11T11:52:26.225Z,33.40
2023-02-11T11:55:20.586Z,32.40
2023-02-11T11:58:15.522Z,35.80
2023-02-11T12:01:21.230Z,31.30
2023-02-11T12:04:40.203Z,27.40
2023-02-11T12:07:46.010Z,29.20
2023-02-11T12:10:54.700Z,30.10
2023-02-11T12:14:00.536Z,27.20
2023-02-11T12:16:58.324Z,30.50
2023-02-11T12:20:17.406Z,33.20
2023-02-11T12:23:24.236Z,29.50
2023-02-11T12:26:17.540Z,30.70
2023-02-11T12:29:15.673Z,31.30
2023-02-11T12:32:15.442Z,34.60
2023-02-11T12:35:06.748Z,30.90
2023-02-11T12:38:19.667Z,33.60
2023-02-11T12:41:42.673Z,125.90
2023-02-11T12:44:40.509Z,38.30
2023-02-11T12:47:41.236Z,36.00
2023-02-11T12:50:29.733Z,34.00
2023-02-11T12:53:31.243Z,29.80
2023-02-11T12:56:26.510Z,33.70
2023-02-11T12:59:02.924Z,30.80
2023-02-11T13:01:53.609Z,33.90
2023-02-11T13:04:49.813Z,38.30
2023-02-11T13:07:43.560Z,36.40
2023-02-11T13:10:35.880Z,39.30
2023-02-11T13:13:30.099Z,33.20
2023-02-11T13:19:21.481Z,37.90
2023-02-11T13:22:17.199Z,39.80
2023-02-11T13:25:16.903Z,35.80
2023-02-11T13:28:20.204Z,35.40
2023-02-11T13:31:12.270Z,34.80
2023-02-11T13:34:01.149Z,33.30
2023-02-11T13:36:56.616Z,38.90
2023-02-11T13:39:57.031Z,41.20
2023-02-11T13:42:51.718Z,27.60
2023-02-11T13:45:47.048Z,42.80
2023-02-11T13:48:38.291Z,34.20
2023-02-11T13:51:39.030Z,32.00
2023-02-11T13:54:23.342Z,35.50
2023-02-11T13:57:37.563Z,33.10
2023-02-11T14:00:52.382Z,33.70
2023-02-11T14:04:37.358Z,36.20
2023-02-11T14:07:47.594Z,32.80
2023-02-11T14:10:54.120Z,35.60
2023-02-11T14:13:27.298Z,33.80
2023-02-11T14:16:31.654Z,37.30
2023-02-11T14:19:32.043Z,33.90
2023-02-11T14:22:26.312Z,38.20
2023-02-11T14:25:22.659Z,39.30
2023-02-11T14:28:22.356Z,42.50
2023-02-11T14:31:03.391Z,36.00
2023-02-11T14:34:17.230Z,34.60
2023-02-11T14:37:22.339Z,39.30
2023-02-11T14:40:23.054Z,42.30
2023-02-11T14:43:09.426Z,32.10
2023-02-11T14:46:07.413Z,32.30
2023-02-11T14:49:02.156Z,32.30
2023-02-11T14:51:53.754Z,35.90
2023-02-11T14:54:44.700Z,39.20
2023-02-11T14:57:33.476Z,38.30
2023-02-11T15:00:23.597Z,34.70
2023-02-11T15:03:26.716Z,40.80
2023-02-11T15:06:19.741Z,42.70
2023-02-11T15:09:17.763Z,41.20
2023-02-11T15:12:17.315Z,42.60
2023-02-11T15:15:12.387Z,38.50
2023-02-11T15:18:04.414Z,39.00
2023-02-11T15:20:53.946Z,41.90
2023-02-11T15:24:01.579Z,42.80
2023-02-11T15:26:30.489Z,39.90
2023-02-11T15:29:19.172Z,40.20
2023-02-11T15:32:14.746Z,36.80
2023-02-11T15:35:04.769Z,32.00
2023-02-11T15:37:53.755Z,33.20
2023-02-11T15:40:53.688Z,38.30
2023-02-11T15:43:22.633Z,38.40
2023-02-11T15:46:16.173Z,42.70
2023-02-11T15:49:05.808Z,41.20
2023-02-11T15:51:56.856Z,48.60
2023-02-11T15:54:47.894Z,43.70
2023-02-11T15:57:36.737Z,44.60
2023-02-11T16:00:31.851Z,48.20
2023-02-11T16:03:00.558Z,43.40
2023-02-11T16:05:49.416Z,45.60
2023-02-11T16:08:32.164Z,43.60
2023-02-11T16:11:26.322Z,45.10
2023-02-11T16:14:01.642Z,46.30
2023-02-11T16:16:53.695Z,49.10
2023-02-11T16:19:46.006Z,36.80
2023-02-11T16:22:37.510Z,41.10
2023-02-11T16:25:26.384Z,44.00
2023-02-11T16:28:17.139Z,38.90
2023-02-11T16:30:51.265Z,42.40
2023-02-11T16:33:20.655Z,41.10
2023-02-11T16:36:13.577Z,44.50
2023-02-11T16:38:47.469Z,48.70
2023-02-11T16:41:36.630Z,57.60
2023-02-11T16:44:25.483Z,62.30
2023-02-11T16:47:20.268Z,60.70
2023-02-11T16:50:11.989Z,52.70
2023-02-11T16:53:01.685Z,50.80
2023-02-11T16:55:34.929Z,53.30
2023-02-11T16:58:23.759Z,47.40
2023-02-11T17:01:14.094Z,50.60
2023-02-11T17:04:03.262Z,53.50
2023-02-11T17:06:41.793Z,52.10
2023-02-11T17:09:20.002Z,48.50
2023-02-11T17:12:08.942Z,46.00
2023-02-11T17:17:30.447Z,49.60
2023-02-11T17:20:02.235Z,47.10
2023-02-11T17:22:30.855Z,48.70
2023-02-11T17:25:19.756Z,49.70
2023-02-11T17:28:09.580Z,51.70
2023-02-11T17:30:58.535Z,61.00
2023-02-11T17:33:37.790Z,55.60
2023-02-11T17:36:27.166Z,62.10
2023-02-11T17:39:16.019Z,64.10
2023-02-11T17:42:05.767Z,63.10
2023-02-11T17:44:34.701Z,62.40
2023-02-11T17:47:23.455Z,64.40
2023-02-11T17:50:12.459Z,65.50
2023-02-11T17:53:01.388Z,61.10
2023-02-11T17:55:50.694Z,68.40
2023-02-11T17:58:19.462Z,66.20
2023-02-11T18:01:08.273Z,66.60
2023-02-11T18:03:57.136Z,69.10
2023-02-11T18:06:46.367Z,60.00
2023-02-11T18:09:38.541Z,59.30
2023-02-11T18:12:27.507Z,55.10
2023-02-11T18:15:16.817Z,56.20
2023-02-11T18:17:45.412Z,54.50
2023-02-11T18:20:14.567Z,53.40
2023-02-11T18:22:43.544Z,53.20
2023-02-11T18:25:14.653Z,60.40
2023-02-11T18:27:46.176Z,59.50
2023-02-11T18:30:20.031Z,62.60
2023-02-11T18:32:52.555Z,61.70
2023-02-11T18:35:29.933Z,59.60
2023-02-11T18:38:04.264Z,63.80
2023-02-11T18:40:45.922Z,58.10
2023-02-11T18:43:34.614Z,53.50
2023-02-11T18:46:23.224Z,53.10
2023-02-11T18:49:12.602Z,49.50
2023-02-11T18:52:01.347Z,54.50
2023-02-11T18:54:51.869Z,47.40
2023-02-11T18:57:40.723Z,46.40
2023-02-11T19:00:30.414Z,45.40
2023-02-11T19:03:19.393Z,41.70
2023-02-11T19:06:14.963Z,44.00
2023-02-11T19:09:07.198Z,44.00
2023-02-11T19:11:57.381Z,39.00
2023-02-11T19:14:46.362Z,36.30
2023-02-11T19:17:20.096Z,40.50
2023-02-11T19:20:10.732Z,42.20
2023-02-11T19:22:59.864Z,43.20
2023-02-11T19:25:48.769Z,41.00
2023-02-11T19:28:39.552Z,46.00
2023-02-11T19:31:31.790Z,43.60
2023-02-11T19:34:21.684Z,45.10
2023-02-11T19:37:12.065Z,45.90
2023-02-11T19:40:00.698Z,42.40
2023-02-11T19:42:49.300Z,45.40
2023-02-11T19:45:38.448Z,43.40
2023-02-11T19:48:27.427Z,36.00
2023-02-11T19:51:17.649Z,35.60
2023-02-11T19:54:07.785Z,40.40
2023-02-11T19:56:56.781Z,37.10
2023-02-11T19:59:45.372Z,37.70
2023-02-11T20:02:34.244Z,34.40
2023-02-11T20:05:23.207Z,38.80
2023-02-11T20:08:11.828Z,36.00
2023-02-11T20:11:06.987Z,37.00
2023-02-11T20:16:16.033Z,34.70
2023-02-11T20:18:49.210Z,32.20
2023-02-11T20:21:38.704Z,31.10
2023-02-11T20:24:27.607Z,32.40
2023-02-11T20:27:19.056Z,27.20
2023-02-11T20:30:11.267Z,27.70
2023-02-11T20:33:00.180Z,23.10
2023-02-11T20:35:55.954Z,23.00
2023-02-11T20:38:47.520Z,23.70
2023-02-11T20:41:32.059Z,20.20
2023-02-11T20:44:21.861Z,21.70
2023-02-11T20:47:11.612Z,28.20
2023-02-11T20:50:00.362Z,32.80
2023-02-11T20:52:48.922Z,36.50
2023-02-11T20:55:39.003Z,25.80
2023-02-11T20:58:27.596Z,23.60
2023-02-11T21:01:19.842Z,22.10
2023-02-11T21:04:12.170Z,26.50
2023-02-11T21:07:02.125Z,25.50
2023-02-11T21:09:50.726Z,22.80
2023-02-11T21:12:39.353Z,23.30
2023-02-11T21:15:28.146Z,24.30
2023-02-11T21:18:17.019Z,29.80
2023-02-11T21:21:07.111Z,22.60
2023-02-11T21:23:44.632Z,22.60
2023-02-11T21:26:34.653Z,18.60
2023-02-11T21:29:23.368Z,24.50
2023-02-11T21:32:12.051Z,30.80
2023-02-11T21:35:02.402Z,44.70
2023-02-11T21:37:51.168Z,37.10
2023-02-11T21:40:40.015Z,28.40
2023-02-11T21:43:28.622Z,30.00
2023-02-11T21:46:19.098Z,27.10
2023-02-11T21:49:07.986Z,27.10
2023-02-11T21:51:56.631Z,26.10
2023-02-11T21:54:34.505Z,22.40
2023-02-11T21:57:23.382Z,26.70
2023-02-11T22:00:15.555Z,28.90
2023-02-11T22:03:04.649Z,29.10
2023-02-11T22:05:43.627Z,24.70
2023-02-11T22:08:32.264Z,29.00
2023-02-11T22:11:21.498Z,23.70
2023-02-11T22:14:10.058Z,22.20
2023-02-11T22:16:50.140Z,24.30
2023-02-11T22:19:38.966Z,25.20
2023-02-11T22:22:28.531Z,20.70
2023-02-11T22:25:17.729Z,28.30
2023-02-11T22:28:06.387Z,50.80
2023-02-11T22:30:56.002Z,39.20
2023-02-11T22:33:28.326Z,28.70
2023-02-11T22:36:19.774Z,29.00
2023-02-11T22:39:11.746Z,32.80
2023-02-11T22:42:00.391Z,29.00
2023-02-11T22:44:49.029Z,33.30
2023-02-11T22:47:38.235Z,30.80
2023-02-11T22:50:26.944Z,30.10
2023-02-11T22:53:15.594Z,30.70
2023-02-11T22:56:06.682Z,30.70
2023-02-11T22:58:58.488Z,28.70
2023-02-11T23:01:47.941Z,31.50
2023-02-11T23:04:36.614Z,33.10
2023-02-11T23:07:25.279Z,23.30
2023-02-11T23:10:13.791Z,28.30
2023-02-11T23:13:03.241Z,26.40
2023-02-11T23:15:51.844Z,28.10
2023-02-11T23:18:42.029Z,33.70
2023-02-11T23:21:22.943Z,51.90
2023-02-11T23:24:14.056Z,118.70
2023-02-11T23:27:02.920Z,108.90
2023-02-11T23:29:54.907Z,41.20
2023-02-11T23:32:43.510Z,33.00
2023-02-11T23:35:32.104Z,28.00
2023-02-11T23:38:20.797Z,30.50
2023-02-11T23:41:10.163Z,28.80
2023-02-11T23:43:58.868Z,28.00
2023-02-11T23:46:47.434Z,28.20
2023-02-11T23:49:36.072Z,35.00
2023-02-11T23:52:24.696Z,25.70
2023-02-11T23:55:13.278Z,27.00
2023-02-11T23:58:01.845Z,23.80
